Terminal Aerodrome Forecast
Issued by NWS

Current Version | Previous Version | Text Only | Print | Product List | Glossary Off
Versions: 1 2 3 4 5 6 7 8 9 10 11 12 13 14 15 16 17 18 19 20 21 22 23 24 25 26 27 28 29

974
FTUS41 KRNK 291731
TAFLWB
TAF
KLWB 291731Z 2918/3018 24009KT P6SM SCT040 BKN250
     FM300000 20004KT P6SM FEW070
     FM300900 VRB03KT 3SM BR SCT025
     FM301300 19004KT P6SM SCT250=

USA.gov is the U.S. government's official web portal to all federal, state and local government web resources and services.